sensor_id;sensor_type;location;lat;lon;timestamp;pressure;altitude;pressure_sealevel;temperature;humidity
67545;BME280;54380;47.770;11.150;2022-08-30T00:01:03;95098.22;;;19.23;58.62
67545;BME280;54380;47.770;11.150;2022-08-30T00:03:42;95101.88;;;19.27;58.96
67545;BME280;54380;47.770;11.150;2022-08-30T00:06:14;95100.97;;;19.32;59.06
67545;BME280;54380;47.770;11.150;2022-08-30T00:08:41;95109.31;;;19.30;59.00
67545;BME280;54380;47.770;11.150;2022-08-30T00:11:13;95103.56;;;19.37;58.82
67545;BME280;54380;47.770;11.150;2022-08-30T00:13:42;95103.44;;;19.42;58.42
67545;BME280;54380;47.770;11.150;2022-08-30T00:16:11;95100.94;;;19.45;58.28
67545;BME280;54380;47.770;11.150;2022-08-30T00:18:39;95100.66;;;19.47;58.11
67545;BME280;54380;47.770;11.150;2022-08-30T00:21:06;95098.28;;;19.45;58.13
67545;BME280;54380;47.770;11.150;2022-08-30T00:23:33;95103.16;;;19.43;58.14
67545;BME280;54380;47.770;11.150;2022-08-30T00:26:01;95105.84;;;19.43;57.97
67545;BME280;54380;47.770;11.150;2022-08-30T00:28:29;95094.63;;;19.41;58.01
67545;BME280;54380;47.770;11.150;2022-08-30T00:30:57;95097.59;;;19.40;58.04
67545;BME280;54380;47.770;11.150;2022-08-30T00:33:24;95094.75;;;19.36;58.26
67545;BME280;54380;47.770;11.150;2022-08-30T00:35:51;95099.00;;;19.37;58.12
67545;BME280;54380;47.770;11.150;2022-08-30T00:38:18;95089.38;;;19.36;57.71
67545;BME280;54380;47.770;11.150;2022-08-30T00:40:45;95089.50;;;19.31;57.73
67545;BME280;54380;47.770;11.150;2022-08-30T00:43:15;95085.53;;;19.28;58.10
67545;BME280;54380;47.770;11.150;2022-08-30T00:45:46;95096.53;;;19.27;58.01
67545;BME280;54380;47.770;11.150;2022-08-30T00:48:13;95093.06;;;19.26;58.04
67545;BME280;54380;47.770;11.150;2022-08-30T00:50:43;95085.81;;;19.27;57.97
67545;BME280;54380;47.770;11.150;2022-08-30T00:53:14;95086.91;;;19.26;57.58
67545;BME280;54380;47.770;11.150;2022-08-30T00:55:42;95082.56;;;19.16;57.39
67545;BME280;54380;47.770;11.150;2022-08-30T00:58:13;95080.41;;;19.04;57.39
67545;BME280;54380;47.770;11.150;2022-08-30T01:00:47;95087.53;;;18.95;57.79
67545;BME280;54380;47.770;11.150;2022-08-30T01:03:15;95086.84;;;18.90;58.13
67545;BME280;54380;47.770;11.150;2022-08-30T01:05:42;95089.34;;;18.86;58.47
67545;BME280;54380;47.770;11.150;2022-08-30T01:08:10;95096.25;;;18.87;58.47
67545;BME280;54380;47.770;11.150;2022-08-30T01:10:37;95088.44;;;18.91;58.38
67545;BME280;54380;47.770;11.150;2022-08-30T01:13:04;95090.81;;;18.92;58.40
67545;BME280;54380;47.770;11.150;2022-08-30T01:15:32;95090.31;;;18.90;57.99
67545;BME280;54380;47.770;11.150;2022-08-30T01:18:02;95094.69;;;18.86;58.25
67545;BME280;54380;47.770;11.150;2022-08-30T01:20:37;95096.56;;;18.85;58.58
67545;BME280;54380;47.770;11.150;2022-08-30T01:23:10;95091.22;;;18.85;58.70
67545;BME280;54380;47.770;11.150;2022-08-30T01:25:40;95094.97;;;18.84;58.83
67545;BME280;54380;47.770;11.150;2022-08-30T01:28:13;95093.56;;;18.87;58.64
67545;BME280;54380;47.770;11.150;2022-08-30T01:30:41;95094.38;;;18.88;58.38
67545;BME280;54380;47.770;11.150;2022-08-30T01:33:11;95090.91;;;18.87;57.75
67545;BME280;54380;47.770;11.150;2022-08-30T01:35:43;95091.00;;;18.82;57.69
67545;BME280;54380;47.770;11.150;2022-08-30T01:38:13;95094.34;;;18.74;57.70
67545;BME280;54380;47.770;11.150;2022-08-30T01:40:41;95090.28;;;18.62;57.65
67545;BME280;54380;47.770;11.150;2022-08-30T01:43:09;95095.81;;;18.52;57.36
67545;BME280;54380;47.770;11.150;2022-08-30T01:45:37;95088.28;;;18.40;57.67
67545;BME280;54380;47.770;11.150;2022-08-30T01:48:03;95090.81;;;18.32;58.31
67545;BME280;54380;47.770;11.150;2022-08-30T01:50:32;95091.41;;;18.29;58.38
67545;BME280;54380;47.770;11.150;2022-08-30T01:52:59;95087.94;;;18.28;58.72
67545;BME280;54380;47.770;11.150;2022-08-30T01:55:27;95083.38;;;18.29;58.69
67545;BME280;54380;47.770;11.150;2022-08-30T01:57:54;95089.31;;;18.26;58.67
67545;BME280;54380;47.770;11.150;2022-08-30T02:00:21;95087.25;;;18.23;58.69
67545;BME280;54380;47.770;11.150;2022-08-30T02:02:48;95098.78;;;18.18;58.68
67545;BME280;54380;47.770;11.150;2022-08-30T02:05:14;95095.69;;;18.11;58.52
67545;BME280;54380;47.770;11.150;2022-08-30T02:07:42;95088.66;;;18.01;58.31
67545;BME280;54380;47.770;11.150;2022-08-30T02:10:09;95087.22;;;17.90;58.42
67545;BME280;54380;47.770;11.150;2022-08-30T02:12:37;95090.31;;;17.78;58.47
67545;BME280;54380;47.770;11.150;2022-08-30T02:15:05;95082.19;;;17.69;59.09
67545;BME280;54380;47.770;11.150;2022-08-30T02:17:32;95082.72;;;17.66;59.48
67545;BME280;54380;47.770;11.150;2022-08-30T02:19:59;95079.28;;;17.66;59.73
67545;BME280;54380;47.770;11.150;2022-08-30T02:22:27;95082.72;;;17.66;59.66
67545;BME280;54380;47.770;11.150;2022-08-30T02:24:53;95096.91;;;17.67;59.46
67545;BME280;54380;47.770;11.150;2022-08-30T02:27:20;95093.41;;;17.66;59.72
67545;BME280;54380;47.770;11.150;2022-08-30T02:29:49;95085.41;;;17.66;59.68
67545;BME280;54380;47.770;11.150;2022-08-30T02:32:16;95086.50;;;17.65;59.70
67545;BME280;54380;47.770;11.150;2022-08-30T02:34:43;95101.41;;;17.66;60.09
67545;BME280;54380;47.770;11.150;2022-08-30T02:37:11;95101.94;;;17.68;60.14
67545;BME280;54380;47.770;11.150;2022-08-30T02:39:37;95103.22;;;17.71;60.12
67545;BME280;54380;47.770;11.150;2022-08-30T02:42:04;95096.53;;;17.73;59.83
67545;BME280;54380;47.770;11.150;2022-08-30T02:44:31;95106.91;;;17.75;59.78
67545;BME280;54380;47.770;11.150;2022-08-30T02:46:59;95103.22;;;17.71;59.37
67545;BME280;54380;47.770;11.150;2022-08-30T02:49:26;95105.97;;;17.66;59.28
67545;BME280;54380;47.770;11.150;2022-08-30T02:52:01;95110.09;;;17.58;59.26
67545;BME280;54380;47.770;11.150;2022-08-30T02:54:28;95114.50;;;17.49;59.19
67545;BME280;54380;47.770;11.150;2022-08-30T02:56:58;95105.53;;;17.40;59.53
67545;BME280;54380;47.770;11.150;2022-08-30T02:59:30;95110.06;;;17.39;59.93
67545;BME280;54380;47.770;11.150;2022-08-30T03:01:59;95109.28;;;17.39;60.09
67545;BME280;54380;47.770;11.150;2022-08-30T03:04:26;95112.03;;;17.33;60.01
67545;BME280;54380;47.770;11.150;2022-08-30T03:06:52;95117.44;;;17.28;59.72
67545;BME280;54380;47.770;11.150;2022-08-30T03:09:19;95113.25;;;17.22;59.44
67545;BME280;54380;47.770;11.150;2022-08-30T03:11:46;95109.03;;;17.16;59.72
67545;BME280;54380;47.770;11.150;2022-08-30T03:14:13;95109.59;;;17.13;59.74
67545;BME280;54380;47.770;11.150;2022-08-30T03:16:40;95101.09;;;17.11;60.23
67545;BME280;54380;47.770;11.150;2022-08-30T03:19:08;95107.72;;;17.14;60.68
67545;BME280;54380;47.770;11.150;2022-08-30T03:21:35;95099.97;;;17.17;60.72
67545;BME280;54380;47.770;11.150;2022-08-30T03:24:03;95100.38;;;17.24;60.76
67545;BME280;54380;47.770;11.150;2022-08-30T03:26:29;95105.19;;;17.27;59.99
67545;BME280;54380;47.770;11.150;2022-08-30T03:28:56;95105.19;;;17.27;59.83
67545;BME280;54380;47.770;11.150;2022-08-30T03:31:24;95096.16;;;17.23;60.09
67545;BME280;54380;47.770;11.150;2022-08-30T03:33:51;95095.06;;;17.24;60.17
67545;BME280;54380;47.770;11.150;2022-08-30T03:36:19;95092.69;;;17.23;59.82
67545;BME280;54380;47.770;11.150;2022-08-30T03:38:46;95088.47;;;17.17;59.67
67545;BME280;54380;47.770;11.150;2022-08-30T03:41:13;95090.41;;;17.11;59.55
67545;BME280;54380;47.770;11.150;2022-08-30T03:43:40;95086.25;;;17.05;60.19
67545;BME280;54380;47.770;11.150;2022-08-30T03:46:08;95093.22;;;17.01;60.18
67545;BME280;54380;47.770;11.150;2022-08-30T03:48:36;95098.06;;;16.99;60.38
67545;BME280;54380;47.770;11.150;2022-08-30T03:51:03;95097.47;;;17.02;60.66
67545;BME280;54380;47.770;11.150;2022-08-30T03:53:33;95090.00;;;17.04;60.53
67545;BME280;54380;47.770;11.150;2022-08-30T03:56:00;95096.63;;;17.06;60.69
67545;BME280;54380;47.770;11.150;2022-08-30T03:58:26;95095.03;;;17.05;60.63
67545;BME280;54380;47.770;11.150;2022-08-30T04:00:54;95091.78;;;17.08;60.51
67545;BME280;54380;47.770;11.150;2022-08-30T04:03:21;95095.75;;;17.11;60.53
67545;BME280;54380;47.770;11.150;2022-08-30T04:05:51;95090.34;;;17.16;60.73
67545;BME280;54380;47.770;11.150;2022-08-30T04:08:20;95092.44;;;17.19;60.58
67545;BME280;54380;47.770;11.150;2022-08-30T04:10:48;95100.38;;;17.24;60.38
67545;BME280;54380;47.770;11.150;2022-08-30T04:13:15;95102.78;;;17.26;60.46
67545;BME280;54380;47.770;11.150;2022-08-30T04:15:42;95106.75;;;17.28;60.36
67545;BME280;54380;47.770;11.150;2022-08-30T04:18:09;95103.50;;;17.31;60.09
67545;BME280;54380;47.770;11.150;2022-08-30T04:20:36;95107.47;;;17.34;60.00
67545;BME280;54380;47.770;11.150;2022-08-30T04:23:04;95117.88;;;17.36;60.04
67545;BME280;54380;47.770;11.150;2022-08-30T04:25:32;95116.50;;;17.38;59.71
67545;BME280;54380;47.770;11.150;2022-08-30T04:28:01;95115.13;;;17.41;59.71
67545;BME280;54380;47.770;11.150;2022-08-30T04:30:29;95123.41;;;17.39;59.69
67545;BME280;54380;47.770;11.150;2022-08-30T04:32:56;95127.19;;;17.38;59.80
67545;BME280;54380;47.770;11.150;2022-08-30T04:35:24;95130.63;;;17.39;59.59
67545;BME280;54380;47.770;11.150;2022-08-30T04:37:52;95126.09;;;17.39;59.48
67545;BME280;54380;47.770;11.150;2022-08-30T04:40:19;95132.50;;;17.38;59.46
67545;BME280;54380;47.770;11.150;2022-08-30T04:42:47;95130.13;;;17.37;59.20
67545;BME280;54380;47.770;11.150;2022-08-30T04:45:15;95131.22;;;17.36;58.79
67545;BME280;54380;47.770;11.150;2022-08-30T04:47:43;95135.59;;;17.26;58.51
67545;BME280;54380;47.770;11.150;2022-08-30T04:50:14;95130.66;;;17.15;58.44
67545;BME280;54380;47.770;11.150;2022-08-30T04:52:42;95131.06;;;17.03;58.84
67545;BME280;54380;47.770;11.150;2022-08-30T04:55:10;95131.13;;;16.98;59.08
67545;BME280;54380;47.770;11.150;2022-08-30T04:57:38;95134.34;;;16.95;59.48
67545;BME280;54380;47.770;11.150;2022-08-30T05:00:08;95138.09;;;16.94;59.59
67545;BME280;54380;47.770;11.150;2022-08-30T05:02:38;95141.84;;;16.93;59.85
67545;BME280;54380;47.770;11.150;2022-08-30T05:05:07;95146.69;;;16.91;59.45
67545;BME280;54380;47.770;11.150;2022-08-30T05:07:53;95155.22;;;16.87;59.63
67545;BME280;54380;47.770;11.150;2022-08-30T05:10:20;95155.75;;;16.89;60.14
67545;BME280;54380;47.770;11.150;2022-08-30T05:12:46;95153.81;;;16.95;59.93
67545;BME280;54380;47.770;11.150;2022-08-30T05:15:13;95153.75;;;17.00;60.10
67545;BME280;54380;47.770;11.150;2022-08-30T05:17:41;95162.50;;;17.06;60.16
67545;BME280;54380;47.770;11.150;2022-08-30T05:20:09;95160.59;;;17.11;60.02
67545;BME280;54380;47.770;11.150;2022-08-30T05:22:38;95162.09;;;17.18;59.67
67545;BME280;54380;47.770;11.150;2022-08-30T05:25:06;95156.72;;;17.23;59.50
67545;BME280;54380;47.770;11.150;2022-08-30T05:27:33;95151.00;;;17.29;59.57
67545;BME280;54380;47.770;11.150;2022-08-30T05:30:03;95156.81;;;17.37;59.41
67545;BME280;54380;47.770;11.150;2022-08-30T05:32:31;95145.56;;;17.40;59.20
67545;BME280;54380;47.770;11.150;2022-08-30T05:34:59;95159.91;;;17.44;59.18
67545;BME280;54380;47.770;11.150;2022-08-30T05:37:26;95160.44;;;17.46;59.30
67545;BME280;54380;47.770;11.150;2022-08-30T05:39:53;95156.69;;;17.47;59.30
67545;BME280;54380;47.770;11.150;2022-08-30T05:42:20;95151.53;;;17.50;59.41
67545;BME280;54380;47.770;11.150;2022-08-30T05:44:49;95153.38;;;17.55;59.44
67545;BME280;54380;47.770;11.150;2022-08-30T05:47:16;95152.22;;;17.61;59.30
67545;BME280;54380;47.770;11.150;2022-08-30T05:49:43;95149.97;;;17.68;59.07
67545;BME280;54380;47.770;11.150;2022-08-30T05:52:11;95147.44;;;17.77;58.86
67545;BME280;54380;47.770;11.150;2022-08-30T05:54:40;95153.25;;;17.84;58.75
67545;BME280;54380;47.770;11.150;2022-08-30T05:57:06;95152.31;;;17.94;58.92
67545;BME280;54380;47.770;11.150;2022-08-30T05:59:33;95156.44;;;18.05;58.77
67545;BME280;54380;47.770;11.150;2022-08-30T06:02:00;95153.59;;;18.15;58.41
67545;BME280;54380;47.770;11.150;2022-08-30T06:04:27;95149.19;;;18.25;58.45
67545;BME280;54380;47.770;11.150;2022-08-30T06:06:54;95141.81;;;18.35;57.98
67545;BME280;54380;47.770;11.150;2022-08-30T06:09:22;95146.97;;;18.46;57.51
67545;BME280;54380;47.770;11.150;2022-08-30T06:11:49;95141.75;;;18.54;57.63
67545;BME280;54380;47.770;11.150;2022-08-30T06:14:16;95146.59;;;18.66;57.34
67545;BME280;54380;47.770;11.150;2022-08-30T06:16:43;95130.72;;;18.75;57.12
67545;BME280;54380;47.770;11.150;2022-08-30T06:19:12;95135.69;;;18.81;57.18
67545;BME280;54380;47.770;11.150;2022-08-30T06:21:40;95139.03;;;18.87;57.22
67545;BME280;54380;47.770;11.150;2022-08-30T06:24:09;95135.41;;;18.97;57.28
67545;BME280;54380;47.770;11.150;2022-08-30T06:26:39;95133.59;;;19.06;56.83
67545;BME280;54380;47.770;11.150;2022-08-30T06:29:08;95145.00;;;19.12;56.68
67545;BME280;54380;47.770;11.150;2022-08-30T06:31:35;95146.41;;;19.23;56.97
67545;BME280;54380;47.770;11.150;2022-08-30T06:34:02;95139.63;;;19.39;57.65
67545;BME280;54380;47.770;11.150;2022-08-30T06:36:29;95141.72;;;19.42;56.56
67545;BME280;54380;47.770;11.150;2022-08-30T06:38:57;95138.03;;;19.52;56.79
67545;BME280;54380;47.770;11.150;2022-08-30T06:41:26;95132.06;;;19.69;57.16
67545;BME280;54380;47.770;11.150;2022-08-30T06:43:56;95139.78;;;19.84;56.80
67545;BME280;54380;47.770;11.150;2022-08-30T06:46:25;95137.47;;;19.91;56.07
67545;BME280;54380;47.770;11.150;2022-08-30T06:48:54;95133.63;;;20.06;56.42
67545;BME280;54380;47.770;11.150;2022-08-30T06:51:22;95130.31;;;20.23;56.17
67545;BME280;54380;47.770;11.150;2022-08-30T06:53:51;95136.38;;;20.37;56.10
67545;BME280;54380;47.770;11.150;2022-08-30T06:56:19;95130.97;;;20.51;55.73
67545;BME280;54380;47.770;11.150;2022-08-30T06:58:48;95138.28;;;20.59;55.43
67545;BME280;54380;47.770;11.150;2022-08-30T07:01:20;95138.03;;;20.70;55.30
67545;BME280;54380;47.770;11.150;2022-08-30T07:03:47;95142.03;;;20.81;55.45
67545;BME280;54380;47.770;11.150;2022-08-30T07:06:15;95131.78;;;20.83;55.15
67545;BME280;54380;47.770;11.150;2022-08-30T07:08:44;95123.91;;;20.95;55.12
67545;BME280;54380;47.770;11.150;2022-08-30T07:11:11;95122.44;;;21.12;55.46
67545;BME280;54380;47.770;11.150;2022-08-30T07:13:38;95129.88;;;21.32;56.43
67545;BME280;54380;47.770;11.150;2022-08-30T07:16:09;95127.28;;;21.50;56.84
67545;BME280;54380;47.770;11.150;2022-08-30T07:18:39;95125.22;;;21.64;56.88
67545;BME280;54380;47.770;11.150;2022-08-30T07:21:27;95121.31;;;21.79;56.56
67545;BME280;54380;47.770;11.150;2022-08-30T07:23:56;95127.31;;;21.93;56.44
67545;BME280;54380;47.770;11.150;2022-08-30T07:26:25;95124.47;;;22.07;56.08
67545;BME280;54380;47.770;11.150;2022-08-30T07:28:53;95126.53;;;22.19;56.23
67545;BME280;54380;47.770;11.150;2022-08-30T07:31:22;95122.41;;;22.30;56.11
67545;BME280;54380;47.770;11.150;2022-08-30T07:33:51;95121.91;;;22.45;56.23
67545;BME280;54380;47.770;11.150;2022-08-30T07:36:18;95125.22;;;22.60;56.11
67545;BME280;54380;47.770;11.150;2022-08-30T07:38:49;95124.72;;;22.75;55.70
67545;BME280;54380;47.770;11.150;2022-08-30T07:41:20;95120.88;;;22.85;55.25
67545;BME280;54380;47.770;11.150;2022-08-30T07:43:49;95123.53;;;22.93;55.40
67545;BME280;54380;47.770;11.150;2022-08-30T07:46:18;95114.16;;;23.08;54.71
67545;BME280;54380;47.770;11.150;2022-08-30T07:48:45;95122.81;;;23.22;54.74
67545;BME280;54380;47.770;11.150;2022-08-30T07:51:27;95120.34;;;23.38;54.43
67545;BME280;54380;47.770;11.150;2022-08-30T07:53:58;95117.72;;;23.51;54.50
67545;BME280;54380;47.770;11.150;2022-08-30T07:56:28;95121.28;;;23.63;54.19
67545;BME280;54380;47.770;11.150;2022-08-30T07:59:09;95121.72;;;23.74;53.49
67545;BME280;54380;47.770;11.150;2022-08-30T08:01:37;95124.56;;;23.78;53.00
67545;BME280;54380;47.770;11.150;2022-08-30T08:04:07;95124.50;;;23.86;52.90
67545;BME280;54380;47.770;11.150;2022-08-30T08:12:56;95131.97;;;24.23;51.75
67545;BME280;54380;47.770;11.150;2022-08-30T08:15:37;95124.72;;;24.36;51.97
67545;BME280;54380;47.770;11.150;2022-08-30T08:18:05;95120.31;;;24.52;52.00
67545;BME280;54380;47.770;11.150;2022-08-30T08:20:45;95123.69;;;24.61;50.06
67545;BME280;54380;47.770;11.150;2022-08-30T08:23:12;95120.78;;;24.66;50.38
67545;BME280;54380;47.770;11.150;2022-08-30T08:25:53;95121.91;;;24.78;50.66
67545;BME280;54380;47.770;11.150;2022-08-30T08:31:32;95121.84;;;24.98;50.44
67545;BME280;54380;47.770;11.150;2022-08-30T08:34:13;95121.66;;;25.16;51.11
67545;BME280;54380;47.770;11.150;2022-08-30T08:36:54;95116.16;;;25.37;51.12
67545;BME280;54380;47.770;11.150;2022-08-30T08:39:23;95120.28;;;25.59;51.20
67545;BME280;54380;47.770;11.150;2022-08-30T08:42:09;95116.78;;;25.83;50.99
67545;BME280;54380;47.770;11.150;2022-08-30T08:44:58;95111.19;;;26.04;50.39
67545;BME280;54380;47.770;11.150;2022-08-30T08:54:32;95113.72;;;26.25;48.90
67545;BME280;54380;47.770;11.150;2022-08-30T08:57:02;95115.00;;;26.15;47.45
67545;BME280;54380;47.770;11.150;2022-08-30T08:59:43;95110.84;;;26.18;47.84
67545;BME280;54380;47.770;11.150;2022-08-30T09:08:02;95107.97;;;26.55;47.33
67545;BME280;54380;47.770;11.150;2022-08-30T09:17:19;95098.00;;;27.54;46.94
67545;BME280;54380;47.770;11.150;2022-08-30T09:20:01;95093.50;;;27.77;45.25
67545;BME280;54380;47.770;11.150;2022-08-30T09:22:44;95090.25;;;27.88;43.98
67545;BME280;54380;47.770;11.150;2022-08-30T19:01:42;94881.75;;;24.93;47.98
